Terminal Aerodrome Forecast
Issued by NWS

Home | Current Version | Previous Version | Text Only | Print | Product List | Glossary On
Versions: 1 2 3 4 5 6 7 8 9 10 11 12 13 14 15 16 17 18
000
FTUS43 KTOP 272300
TAFFOE
TAF
KFOE 272320Z 2800/2824 13005KT P6SM BKN250
      TEMPO 2811/2814 -TSRA BKN035CB
     FM281500 16010KT P6SM SCT040 BKN150
     FM282000 17013KT P6SM VCTS SCT040CB=

USA.gov is the U.S. government's official web portal to all federal, state and local government web resources and services.